sensor_id;sensor_type;location;lat;lon;timestamp;temperature;humidity
67249;SHT31;63247;54.300;18.592;2022-10-13T00:00:25;9.56;90.24
67249;SHT31;63247;54.300;18.592;2022-10-13T00:02:51;9.58;90.17
67249;SHT31;63247;54.300;18.592;2022-10-13T00:05:16;9.58;90.17
67249;SHT31;63247;54.300;18.592;2022-10-13T00:07:42;9.58;90.32
67249;SHT31;63247;54.300;18.592;2022-10-13T00:10:08;9.60;90.17
67249;SHT31;63247;54.300;18.592;2022-10-13T00:12:35;9.65;89.89
67249;SHT31;63247;54.300;18.592;2022-10-13T00:15:00;9.65;90.04
67249;SHT31;63247;54.300;18.592;2022-10-13T00:17:26;9.61;90.25
67249;SHT31;63247;54.300;18.592;2022-10-13T00:19:51;9.65;89.83
67249;SHT31;63247;54.300;18.592;2022-10-13T00:22:16;9.64;90.18
67249;SHT31;63247;54.300;18.592;2022-10-13T00:24:42;9.61;90.14
67249;SHT31;63247;54.300;18.592;2022-10-13T00:27:07;9.61;90.20
67249;SHT31;63247;54.300;18.592;2022-10-13T00:29:33;9.60;90.00
67249;SHT31;63247;54.300;18.592;2022-10-13T00:31:58;9.58;90.44
67249;SHT31;63247;54.300;18.592;2022-10-13T00:34:23;9.56;90.51
67249;SHT31;63247;54.300;18.592;2022-10-13T00:36:49;9.58;90.36
67249;SHT31;63247;54.300;18.592;2022-10-13T00:39:14;9.58;90.55
67249;SHT31;63247;54.300;18.592;2022-10-13T00:41:40;9.64;89.65
67249;SHT31;63247;54.300;18.592;2022-10-13T00:47:09;9.63;90.20
67249;SHT31;63247;54.300;18.592;2022-10-13T00:49:34;9.64;89.93
67249;SHT31;63247;54.300;18.592;2022-10-13T00:52:00;9.70;89.34
67249;SHT31;63247;54.300;18.592;2022-10-13T00:54:25;9.78;88.76
67249;SHT31;63247;54.300;18.592;2022-10-13T00:56:51;9.83;88.53
67249;SHT31;63247;54.300;18.592;2022-10-13T00:59:24;9.85;88.09
67249;SHT31;63247;54.300;18.592;2022-10-13T01:01:51;9.85;87.91
67249;SHT31;63247;54.300;18.592;2022-10-13T01:04:19;9.83;88.69
67249;SHT31;63247;54.300;18.592;2022-10-13T01:06:47;9.88;88.13
67249;SHT31;63247;54.300;18.592;2022-10-13T01:09:13;9.91;87.77
67249;SHT31;63247;54.300;18.592;2022-10-13T01:11:57;9.84;88.14
67249;SHT31;63247;54.300;18.592;2022-10-13T01:14:41;9.81;88.49
67249;SHT31;63247;54.300;18.592;2022-10-13T01:30:51;9.63;89.68
67249;SHT31;63247;54.300;18.592;2022-10-13T01:33:32;9.57;89.83
67249;SHT31;63247;54.300;18.592;2022-10-13T01:36:25;9.54;89.96
67249;SHT31;63247;54.300;18.592;2022-10-13T01:41:49;9.53;89.76
67249;SHT31;63247;54.300;18.592;2022-10-13T01:44:28;9.54;89.52
67249;SHT31;63247;54.300;18.592;2022-10-13T01:46:55;9.54;89.46
67249;SHT31;63247;54.300;18.592;2022-10-13T01:49:24;9.51;89.62
67249;SHT31;63247;54.300;18.592;2022-10-13T01:51:53;9.53;90.17
67249;SHT31;63247;54.300;18.592;2022-10-13T01:54:19;9.56;88.93
67249;SHT31;63247;54.300;18.592;2022-10-13T01:56:54;9.58;89.12
67249;SHT31;63247;54.300;18.592;2022-10-13T01:59:21;9.64;88.56
67249;SHT31;63247;54.300;18.592;2022-10-13T02:02:03;9.56;89.83
67249;SHT31;63247;54.300;18.592;2022-10-13T02:07:53;9.48;89.59
67249;SHT31;63247;54.300;18.592;2022-10-13T02:13:01;9.37;90.25
67249;SHT31;63247;54.300;18.592;2022-10-13T02:15:33;9.35;90.18
67249;SHT31;63247;54.300;18.592;2022-10-13T02:18:00;9.30;90.64
67249;SHT31;63247;54.300;18.592;2022-10-13T02:20:27;9.26;90.86
67249;SHT31;63247;54.300;18.592;2022-10-13T02:22:58;9.26;91.07
67249;SHT31;63247;54.300;18.592;2022-10-13T02:25:25;9.18;91.37
67249;SHT31;63247;54.300;18.592;2022-10-13T02:27:51;9.18;91.20
67249;SHT31;63247;54.300;18.592;2022-10-13T02:30:22;9.18;91.05
67249;SHT31;63247;54.300;18.592;2022-10-13T02:32:48;9.14;91.26
67249;SHT31;63247;54.300;18.592;2022-10-13T02:35:13;9.11;91.42
67249;SHT31;63247;54.300;18.592;2022-10-13T02:37:39;9.09;91.78
67249;SHT31;63247;54.300;18.592;2022-10-13T02:40:05;9.08;91.49
67249;SHT31;63247;54.300;18.592;2022-10-13T02:42:31;9.06;91.51
67249;SHT31;63247;54.300;18.592;2022-10-13T02:44:56;9.15;91.41
67249;SHT31;63247;54.300;18.592;2022-10-13T02:47:21;9.14;91.31
67249;SHT31;63247;54.300;18.592;2022-10-13T02:49:47;9.06;91.79
67249;SHT31;63247;54.300;18.592;2022-10-13T02:52:12;8.96;92.32
67249;SHT31;63247;54.300;18.592;2022-10-13T02:54:38;8.91;92.75
67249;SHT31;63247;54.300;18.592;2022-10-13T02:57:03;8.88;92.90
67249;SHT31;63247;54.300;18.592;2022-10-13T02:59:29;8.85;93.14
67249;SHT31;63247;54.300;18.592;2022-10-13T03:01:54;8.81;93.30
67249;SHT31;63247;54.300;18.592;2022-10-13T03:04:21;8.79;93.60
67249;SHT31;63247;54.300;18.592;2022-10-13T03:06:46;8.75;93.94
67249;SHT31;63247;54.300;18.592;2022-10-13T03:09:12;8.75;93.94
67249;SHT31;63247;54.300;18.592;2022-10-13T03:11:37;8.77;94.01
67249;SHT31;63247;54.300;18.592;2022-10-13T03:14:03;8.78;93.44
67249;SHT31;63247;54.300;18.592;2022-10-13T03:16:28;8.78;92.86
67249;SHT31;63247;54.300;18.592;2022-10-13T03:18:54;8.79;93.07
67249;SHT31;63247;54.300;18.592;2022-10-13T03:21:19;8.79;93.07
67249;SHT31;63247;54.300;18.592;2022-10-13T03:23:45;8.79;92.72
67249;SHT31;63247;54.300;18.592;2022-10-13T03:26:10;8.82;92.77
67249;SHT31;63247;54.300;18.592;2022-10-13T03:28:35;8.85;92.10
67249;SHT31;63247;54.300;18.592;2022-10-13T03:31:03;8.88;91.80
67249;SHT31;63247;54.300;18.592;2022-10-13T03:33:29;8.89;91.78
67249;SHT31;63247;54.300;18.592;2022-10-13T03:35:57;8.92;91.28
67249;SHT31;63247;54.300;18.592;2022-10-13T03:38:23;8.93;90.91
67249;SHT31;63247;54.300;18.592;2022-10-13T03:40:48;8.98;90.54
67249;SHT31;63247;54.300;18.592;2022-10-13T03:43:14;8.95;91.00
67249;SHT31;63247;54.300;18.592;2022-10-13T03:45:39;8.95;90.98
67249;SHT31;63247;54.300;18.592;2022-10-13T03:48:05;8.93;90.93
67249;SHT31;63247;54.300;18.592;2022-10-13T03:50:30;8.93;90.73
67249;SHT31;63247;54.300;18.592;2022-10-13T03:52:56;8.96;90.86
67249;SHT31;63247;54.300;18.592;2022-10-13T03:55:21;8.92;90.74
67249;SHT31;63247;54.300;18.592;2022-10-13T03:57:46;8.93;90.66
67249;SHT31;63247;54.300;18.592;2022-10-13T04:00:12;8.98;89.84
67249;SHT31;63247;54.300;18.592;2022-10-13T04:02:38;9.02;89.63
67249;SHT31;63247;54.300;18.592;2022-10-13T04:05:04;9.04;89.45
67249;SHT31;63247;54.300;18.592;2022-10-13T04:07:29;9.04;89.41
67249;SHT31;63247;54.300;18.592;2022-10-13T04:09:55;9.05;89.53
67249;SHT31;63247;54.300;18.592;2022-10-13T04:12:20;9.04;89.55
67249;SHT31;63247;54.300;18.592;2022-10-13T04:14:46;9.01;89.49
67249;SHT31;63247;54.300;18.592;2022-10-13T04:17:11;9.05;89.19
67249;SHT31;63247;54.300;18.592;2022-10-13T04:19:36;9.06;89.09
67249;SHT31;63247;54.300;18.592;2022-10-13T04:22:02;9.05;89.24
67249;SHT31;63247;54.300;18.592;2022-10-13T04:24:27;9.04;89.36
67249;SHT31;63247;54.300;18.592;2022-10-13T04:26:53;9.04;89.40
67249;SHT31;63247;54.300;18.592;2022-10-13T04:29:18;9.02;89.57
67249;SHT31;63247;54.300;18.592;2022-10-13T04:31:44;9.02;89.77
67249;SHT31;63247;54.300;18.592;2022-10-13T04:34:10;8.99;89.99
67249;SHT31;63247;54.300;18.592;2022-10-13T04:36:36;8.98;90.19
67249;SHT31;63247;54.300;18.592;2022-10-13T04:39:02;9.02;90.06
67249;SHT31;63247;54.300;18.592;2022-10-13T04:41:27;9.01;90.30
67249;SHT31;63247;54.300;18.592;2022-10-13T04:43:53;9.23;89.58
67249;SHT31;63247;54.300;18.592;2022-10-13T04:46:24;9.35;89.42
67249;SHT31;63247;54.300;18.592;2022-10-13T04:48:50;9.30;89.46
67249;SHT31;63247;54.300;18.592;2022-10-13T04:51:18;9.35;89.61
67249;SHT31;63247;54.300;18.592;2022-10-13T04:53:43;9.27;89.62
67249;SHT31;63247;54.300;18.592;2022-10-13T04:56:15;9.20;89.86
67249;SHT31;63247;54.300;18.592;2022-10-13T04:58:43;9.19;90.17
67249;SHT31;63247;54.300;18.592;2022-10-13T05:01:12;9.06;90.46
67249;SHT31;63247;54.300;18.592;2022-10-13T05:03:39;8.99;90.85
67249;SHT31;63247;54.300;18.592;2022-10-13T05:06:04;8.98;91.45
67249;SHT31;63247;54.300;18.592;2022-10-13T05:08:30;8.88;91.56
67249;SHT31;63247;54.300;18.592;2022-10-13T05:11:01;8.71;92.10
67249;SHT31;63247;54.300;18.592;2022-10-13T05:13:28;8.71;92.52
67249;SHT31;63247;54.300;18.592;2022-10-13T05:15:55;8.61;92.98
67249;SHT31;63247;54.300;18.592;2022-10-13T05:18:21;8.61;92.77
67249;SHT31;63247;54.300;18.592;2022-10-13T05:20:46;8.50;93.10
67249;SHT31;63247;54.300;18.592;2022-10-13T05:23:13;8.54;92.77
67249;SHT31;63247;54.300;18.592;2022-10-13T05:25:39;8.43;92.98
67249;SHT31;63247;54.300;18.592;2022-10-13T05:28:05;8.33;93.48
67249;SHT31;63247;54.300;18.592;2022-10-13T05:30:31;8.37;93.32
67249;SHT31;63247;54.300;18.592;2022-10-13T05:32:56;8.32;93.49
67249;SHT31;63247;54.300;18.592;2022-10-13T05:35:23;8.32;93.59
67249;SHT31;63247;54.300;18.592;2022-10-13T05:37:48;8.34;93.34
67249;SHT31;63247;54.300;18.592;2022-10-13T05:40:14;8.37;93.18
67249;SHT31;63247;54.300;18.592;2022-10-13T05:42:39;8.47;92.83
67249;SHT31;63247;54.300;18.592;2022-10-13T05:45:07;8.50;92.62
67249;SHT31;63247;54.300;18.592;2022-10-13T05:47:33;8.39;92.78
67249;SHT31;63247;54.300;18.592;2022-10-13T05:49:59;8.32;92.79
67249;SHT31;63247;54.300;18.592;2022-10-13T05:52:25;8.37;92.71
67249;SHT31;63247;54.300;18.592;2022-10-13T05:54:55;8.37;92.55
67249;SHT31;63247;54.300;18.592;2022-10-13T05:57:42;8.36;92.64
67249;SHT31;63247;54.300;18.592;2022-10-13T06:00:13;8.27;92.67
67249;SHT31;63247;54.300;18.592;2022-10-13T06:05:12;8.43;92.43
67249;SHT31;63247;54.300;18.592;2022-10-13T06:07:38;8.50;92.28
67249;SHT31;63247;54.300;18.592;2022-10-13T06:10:04;8.53;92.17
67249;SHT31;63247;54.300;18.592;2022-10-13T06:12:30;8.46;92.29
67249;SHT31;63247;54.300;18.592;2022-10-13T06:14:55;8.51;92.26
67249;SHT31;63247;54.300;18.592;2022-10-13T06:17:21;9.18;90.71
67249;SHT31;63247;54.300;18.592;2022-10-13T06:19:46;10.26;87.47
67249;SHT31;63247;54.300;18.592;2022-10-13T06:22:11;11.31;84.15
67249;SHT31;63247;54.300;18.592;2022-10-13T06:24:37;12.27;80.98
67249;SHT31;63247;54.300;18.592;2022-10-13T06:27:03;12.86;78.82
67249;SHT31;63247;54.300;18.592;2022-10-13T06:29:28;13.58;76.89
67249;SHT31;63247;54.300;18.592;2022-10-13T06:31:54;13.85;75.26
67249;SHT31;63247;54.300;18.592;2022-10-13T06:34:19;13.99;75.36
67249;SHT31;63247;54.300;18.592;2022-10-13T06:36:45;14.56;74.07
67249;SHT31;63247;54.300;18.592;2022-10-13T06:39:11;15.40;71.89
67249;SHT31;63247;54.300;18.592;2022-10-13T06:41:36;14.94;71.99
67249;SHT31;63247;54.300;18.592;2022-10-13T06:44:02;13.99;74.98
67249;SHT31;63247;54.300;18.592;2022-10-13T06:46:27;14.43;72.46
67249;SHT31;63247;54.300;18.592;2022-10-13T06:48:53;14.63;72.73
67249;SHT31;63247;54.300;18.592;2022-10-13T06:51:18;14.99;71.31
67249;SHT31;63247;54.300;18.592;2022-10-13T06:53:43;14.84;72.27
67249;SHT31;63247;54.300;18.592;2022-10-13T06:56:09;15.18;69.82
67249;SHT31;63247;54.300;18.592;2022-10-13T06:58:36;15.43;70.18
67249;SHT31;63247;54.300;18.592;2022-10-13T07:01:02;14.33;71.31
67249;SHT31;63247;54.300;18.592;2022-10-13T07:03:28;15.08;70.24
67249;SHT31;63247;54.300;18.592;2022-10-13T07:05:54;14.56;70.68
67249;SHT31;63247;54.300;18.592;2022-10-13T07:08:24;15.08;69.97
67249;SHT31;63247;54.300;18.592;2022-10-13T07:10:50;15.35;69.43
67249;SHT31;63247;54.300;18.592;2022-10-13T07:13:15;14.80;70.33
67249;SHT31;63247;54.300;18.592;2022-10-13T07:15:41;14.91;70.30
67249;SHT31;63247;54.300;18.592;2022-10-13T07:18:06;15.11;70.16
67249;SHT31;63247;54.300;18.592;2022-10-13T07:20:32;15.25;69.50
67249;SHT31;63247;54.300;18.592;2022-10-13T07:22:57;15.18;68.90
67249;SHT31;63247;54.300;18.592;2022-10-13T07:25:23;15.54;68.54
67249;SHT31;63247;54.300;18.592;2022-10-13T07:27:48;15.02;69.42
67249;SHT31;63247;54.300;18.592;2022-10-13T07:30:14;15.64;68.06
67249;SHT31;63247;54.300;18.592;2022-10-13T07:32:39;15.29;68.10
67249;SHT31;63247;54.300;18.592;2022-10-13T07:35:08;16.08;67.73
67249;SHT31;63247;54.300;18.592;2022-10-13T07:37:33;16.04;67.07
67249;SHT31;63247;54.300;18.592;2022-10-13T07:39:59;16.29;65.59
67249;SHT31;63247;54.300;18.592;2022-10-13T07:42:25;16.63;65.96
67249;SHT31;63247;54.300;18.592;2022-10-13T07:44:50;17.59;62.39
67249;SHT31;63247;54.300;18.592;2022-10-13T07:47:16;17.21;63.70
67249;SHT31;63247;54.300;18.592;2022-10-13T07:49:41;17.75;62.28
67249;SHT31;63247;54.300;18.592;2022-10-13T07:52:06;18.02;61.70
67249;SHT31;63247;54.300;18.592;2022-10-13T07:54:32;17.87;60.97
67249;SHT31;63247;54.300;18.592;2022-10-13T07:56:57;17.24;61.32
67249;SHT31;63247;54.300;18.592;2022-10-13T07:59:23;17.49;61.95
67249;SHT31;63247;54.300;18.592;2022-10-13T08:01:48;17.06;62.54
67249;SHT31;63247;54.300;18.592;2022-10-13T08:04:14;17.46;62.37
67249;SHT31;63247;54.300;18.592;2022-10-13T08:06:39;17.72;60.68
67249;SHT31;63247;54.300;18.592;2022-10-13T08:09:06;17.31;62.42
67249;SHT31;63247;54.300;18.592;2022-10-13T08:11:31;17.44;61.95
67249;SHT31;63247;54.300;18.592;2022-10-13T08:13:57;18.43;59.81
67249;SHT31;63247;54.300;18.592;2022-10-13T08:16:29;18.67;60.19
67249;SHT31;63247;54.300;18.592;2022-10-13T08:18:56;19.85;56.06
67249;SHT31;63247;54.300;18.592;2022-10-13T08:21:22;18.04;59.87
67249;SHT31;63247;54.300;18.592;2022-10-13T08:23:48;18.69;59.63
67249;SHT31;63247;54.300;18.592;2022-10-13T08:26:16;18.34;58.42
67249;SHT31;63247;54.300;18.592;2022-10-13T08:28:42;17.86;59.14
67249;SHT31;63247;54.300;18.592;2022-10-13T08:31:07;17.68;59.79
67249;SHT31;63247;54.300;18.592;2022-10-13T08:33:33;17.78;59.01
67249;SHT31;63247;54.300;18.592;2022-10-13T08:35:58;17.46;60.29
67249;SHT31;63247;54.300;18.592;2022-10-13T08:38:23;17.68;59.59
67249;SHT31;63247;54.300;18.592;2022-10-13T08:40:50;17.51;60.33
67249;SHT31;63247;54.300;18.592;2022-10-13T08:43:18;18.21;57.59
67249;SHT31;63247;54.300;18.592;2022-10-13T08:45:44;17.54;59.57
67249;SHT31;63247;54.300;18.592;2022-10-13T08:48:22;17.61;60.17
67249;SHT31;63247;54.300;18.592;2022-10-13T08:50:51;18.55;58.17
67249;SHT31;63247;54.300;18.592;2022-10-13T08:53:27;17.46;60.20
67249;SHT31;63247;54.300;18.592;2022-10-13T08:56:24;17.42;59.62
67249;SHT31;63247;54.300;18.592;2022-10-13T08:58:49;18.12;58.54
67249;SHT31;63247;54.300;18.592;2022-10-13T09:01:18;18.14;58.50
67249;SHT31;63247;54.300;18.592;2022-10-13T09:04:03;18.37;58.90
67249;SHT31;63247;54.300;18.592;2022-10-13T09:06:39;18.69;57.30
67249;SHT31;63247;54.300;18.592;2022-10-13T09:09:08;18.64;58.33
67249;SHT31;63247;54.300;18.592;2022-10-13T09:11:42;18.78;56.51
67249;SHT31;63247;54.300;18.592;2022-10-13T09:14:10;18.36;58.11
67249;SHT31;63247;54.300;18.592;2022-10-13T09:16:39;18.48;58.56
67249;SHT31;63247;54.300;18.592;2022-10-13T09:21:42;18.34;57.85
67249;SHT31;63247;54.300;18.592;2022-10-13T09:24:13;18.41;57.80
67249;SHT31;63247;54.300;18.592;2022-10-13T09:26:39;18.29;57.96
67249;SHT31;63247;54.300;18.592;2022-10-13T09:29:21;18.54;58.79
67249;SHT31;63247;54.300;18.592;2022-10-13T09:31:48;19.26;56.39
67249;SHT31;63247;54.300;18.592;2022-10-13T09:37:00;17.41;59.53
67249;SHT31;63247;54.300;18.592;2022-10-13T09:39:28;17.92;58.60
67249;SHT31;63247;54.300;18.592;2022-10-13T09:42:18;17.68;58.41
67249;SHT31;63247;54.300;18.592;2022-10-13T09:44:44;18.71;57.44
67249;SHT31;63247;54.300;18.592;2022-10-13T09:47:18;18.58;56.16
67249;SHT31;63247;54.300;18.592;2022-10-13T09:49:45;18.26;57.09
67249;SHT31;63247;54.300;18.592;2022-10-13T09:57:08;17.03;59.48
67249;SHT31;63247;54.300;18.592;2022-10-13T09:59:40;17.14;59.07
67249;SHT31;63247;54.300;18.592;2022-10-13T10:04:41;18.45;56.19
67249;SHT31;63247;54.300;18.592;2022-10-13T10:07:14;17.71;58.11
67249;SHT31;63247;54.300;18.592;2022-10-13T10:09:45;18.16;57.65
67249;SHT31;63247;54.300;18.592;2022-10-13T10:12:15;18.02;58.40
67249;SHT31;63247;54.300;18.592;2022-10-13T10:14:42;17.69;58.68
67249;SHT31;63247;54.300;18.592;2022-10-13T10:17:31;17.35;58.41
67249;SHT31;63247;54.300;18.592;2022-10-13T10:28:46;16.83;59.87
67249;SHT31;63247;54.300;18.592;2022-10-13T10:36:48;15.73;63.22
67249;SHT31;63247;54.300;18.592;2022-10-13T10:39:26;15.49;63.08
67249;SHT31;63247;54.300;18.592;2022-10-13T10:44:37;15.21;64.13
67249;SHT31;63247;54.300;18.592;2022-10-13T10:47:22;15.14;64.22
67249;SHT31;63247;54.300;18.592;2022-10-13T10:49:53;15.22;63.43
67249;SHT31;63247;54.300;18.592;2022-10-13T10:52:25;15.19;64.13
67249;SHT31;63247;54.300;18.592;2022-10-13T10:55:02;15.25;64.05
67249;SHT31;63247;54.300;18.592;2022-10-13T10:57:49;15.08;64.22
67249;SHT31;63247;54.300;18.592;2022-10-13T11:00:19;15.16;64.81
67249;SHT31;63247;54.300;18.592;2022-10-13T11:16:30;15.09;63.54
67249;SHT31;63247;54.300;18.592;2022-10-13T11:21:24;14.95;64.30
67249;SHT31;63247;54.300;18.592;2022-10-13T11:23:50;15.11;65.18
67249;SHT31;63247;54.300;18.592;2022-10-13T11:28:49;15.32;64.59
67249;SHT31;63247;54.300;18.592;2022-10-13T11:33:56;15.11;65.01
67249;SHT31;63247;54.300;18.592;2022-10-13T11:36:43;14.88;64.24
67249;SHT31;63247;54.300;18.592;2022-10-13T11:45:00;15.06;64.99
67249;SHT31;63247;54.300;18.592;2022-10-13T11:53:09;15.08;63.58
67249;SHT31;63247;54.300;18.592;2022-10-13T11:55:56;15.26;64.57
67249;SHT31;63247;54.300;18.592;2022-10-13T11:58:25;15.06;64.05
67249;SHT31;63247;54.300;18.592;2022-10-13T12:01:02;15.25;64.19
67249;SHT31;63247;54.300;18.592;2022-10-13T12:03:39;15.08;63.48
67249;SHT31;63247;54.300;18.592;2022-10-13T12:06:19;15.05;63.78
67249;SHT31;63247;54.300;18.592;2022-10-13T12:08:50;15.04;64.17
67249;SHT31;63247;54.300;18.592;2022-10-13T12:11:31;14.98;64.02
67249;SHT31;63247;54.300;18.592;2022-10-13T12:13:59;15.23;64.30
67249;SHT31;63247;54.300;18.592;2022-10-13T12:16:26;15.16;63.52
67249;SHT31;63247;54.300;18.592;2022-10-13T12:18:51;15.04;64.06
67249;SHT31;63247;54.300;18.592;2022-10-13T12:21:19;15.04;63.84
67249;SHT31;63247;54.300;18.592;2022-10-13T12:23:50;15.02;63.31
67249;SHT31;63247;54.300;18.592;2022-10-13T12:26:21;15.09;63.61
67249;SHT31;63247;54.300;18.592;2022-10-13T12:28:58;15.14;64.13
67249;SHT31;63247;54.300;18.592;2022-10-13T12:31:48;15.16;63.23
67249;SHT31;63247;54.300;18.592;2022-10-13T12:34:29;15.38;64.31
67249;SHT31;63247;54.300;18.592;2022-10-13T12:37:05;15.33;63.75
67249;SHT31;63247;54.300;18.592;2022-10-13T12:39:36;15.16;63.35
67249;SHT31;63247;54.300;18.592;2022-10-13T12:42:06;15.31;63.99
67249;SHT31;63247;54.300;18.592;2022-10-13T12:44:32;15.23;64.04
67249;SHT31;63247;54.300;18.592;2022-10-13T12:46:59;15.39;64.97
67249;SHT31;63247;54.300;18.592;2022-10-13T12:49:33;15.33;64.07
67249;SHT31;63247;54.300;18.592;2022-10-13T12:52:10;15.23;63.92
67249;SHT31;63247;54.300;18.592;2022-10-13T12:54:45;15.28;64.49
67249;SHT31;63247;54.300;18.592;2022-10-13T12:59:42;15.15;64.41
67249;SHT31;63247;54.300;18.592;2022-10-13T13:02:20;15.18;64.32
67249;SHT31;63247;54.300;18.592;2022-10-13T13:04:47;15.06;63.98
67249;SHT31;63247;54.300;18.592;2022-10-13T13:12:33;14.98;64.52
67249;SHT31;63247;54.300;18.592;2022-10-13T13:15:37;15.04;65.15
67249;SHT31;63247;54.300;18.592;2022-10-13T13:18:21;14.85;64.43
67249;SHT31;63247;54.300;18.592;2022-10-13T13:20:47;14.92;64.50
67249;SHT31;63247;54.300;18.592;2022-10-13T13:23:12;14.88;64.31
67249;SHT31;63247;54.300;18.592;2022-10-13T13:25:38;14.89;64.88
67249;SHT31;63247;54.300;18.592;2022-10-13T13:28:09;14.88;64.76
67249;SHT31;63247;54.300;18.592;2022-10-13T13:30:34;14.83;64.56
67249;SHT31;63247;54.300;18.592;2022-10-13T13:33:00;14.80;64.77
67249;SHT31;63247;54.300;18.592;2022-10-13T13:35:25;14.85;65.13
67249;SHT31;63247;54.300;18.592;2022-10-13T13:37:51;14.77;65.15
67249;SHT31;63247;54.300;18.592;2022-10-13T13:40:20;14.80;64.81
67249;SHT31;63247;54.300;18.592;2022-10-13T13:42:45;14.73;64.95
67249;SHT31;63247;54.300;18.592;2022-10-13T13:45:12;14.74;65.85
67249;SHT31;63247;54.300;18.592;2022-10-13T13:47:37;14.84;66.03
67249;SHT31;63247;54.300;18.592;2022-10-13T13:50:05;14.70;65.58
67249;SHT31;63247;54.300;18.592;2022-10-13T13:52:34;14.68;65.86
67249;SHT31;63247;54.300;18.592;2022-10-13T13:55:00;14.67;65.48
67249;SHT31;63247;54.300;18.592;2022-10-13T13:57:25;14.60;64.98
67249;SHT31;63247;54.300;18.592;2022-10-13T13:59:51;14.53;65.47
67249;SHT31;63247;54.300;18.592;2022-10-13T14:02:20;14.46;65.52
67249;SHT31;63247;54.300;18.592;2022-10-13T14:04:46;14.43;65.80
67249;SHT31;63247;54.300;18.592;2022-10-13T14:07:12;14.48;65.84
67249;SHT31;63247;54.300;18.592;2022-10-13T14:09:37;14.47;65.55
67249;SHT31;63247;54.300;18.592;2022-10-13T14:12:03;14.44;65.98
67249;SHT31;63247;54.300;18.592;2022-10-13T14:14:30;14.44;66.09
67249;SHT31;63247;54.300;18.592;2022-10-13T14:16:56;14.37;66.32
67249;SHT31;63247;54.300;18.592;2022-10-13T14:19:25;14.32;66.29
67249;SHT31;63247;54.300;18.592;2022-10-13T14:21:50;14.29;66.62
67249;SHT31;63247;54.300;18.592;2022-10-13T14:24:17;14.17;66.35
67249;SHT31;63247;54.300;18.592;2022-10-13T14:26:42;14.13;66.75
67249;SHT31;63247;54.300;18.592;2022-10-13T14:29:07;14.02;67.33
67249;SHT31;63247;54.300;18.592;2022-10-13T14:31:33;13.89;67.59
67249;SHT31;63247;54.300;18.592;2022-10-13T14:33:58;13.81;67.77
67249;SHT31;63247;54.300;18.592;2022-10-13T14:36:24;13.67;68.68
67249;SHT31;63247;54.300;18.592;2022-10-13T14:38:50;13.58;68.86
67249;SHT31;63247;54.300;18.592;2022-10-13T14:41:16;13.54;69.12
67249;SHT31;63247;54.300;18.592;2022-10-13T14:43:42;13.39;69.75
67249;SHT31;63247;54.300;18.592;2022-10-13T14:46:08;13.30;69.71
67249;SHT31;63247;54.300;18.592;2022-10-13T14:48:34;13.26;70.15
67249;SHT31;63247;54.300;18.592;2022-10-13T14:51:08;13.14;70.81
67249;SHT31;63247;54.300;18.592;2022-10-13T14:53:36;13.02;71.23
67249;SHT31;63247;54.300;18.592;2022-10-13T14:56:14;12.99;71.49
67249;SHT31;63247;54.300;18.592;2022-10-13T14:58:40;12.91;71.79
67249;SHT31;63247;54.300;18.592;2022-10-13T15:01:05;12.92;71.78
67249;SHT31;63247;54.300;18.592;2022-10-13T15:03:31;12.85;72.05
67249;SHT31;63247;54.300;18.592;2022-10-13T15:05:57;12.76;72.30
67249;SHT31;63247;54.300;18.592;2022-10-13T15:08:23;12.71;72.59
67249;SHT31;63247;54.300;18.592;2022-10-13T15:11:00;12.71;72.68
67249;SHT31;63247;54.300;18.592;2022-10-13T15:13:26;12.79;72.05
67249;SHT31;63247;54.300;18.592;2022-10-13T15:15:51;12.72;72.33
67249;SHT31;63247;54.300;18.592;2022-10-13T15:18:17;12.69;72.46
67249;SHT31;63247;54.300;18.592;2022-10-13T15:20:46;12.61;72.87
67249;SHT31;63247;54.300;18.592;2022-10-13T15:23:12;12.61;72.79
67249;SHT31;63247;54.300;18.592;2022-10-13T15:25:38;12.64;72.66
67249;SHT31;63247;54.300;18.592;2022-10-13T15:28:04;12.61;72.83
67249;SHT31;63247;54.300;18.592;2022-10-13T15:30:32;12.52;72.92
67249;SHT31;63247;54.300;18.592;2022-10-13T15:32:58;12.44;73.21
67249;SHT31;63247;54.300;18.592;2022-10-13T15:35:23;12.44;73.33
67249;SHT31;63247;54.300;18.592;2022-10-13T15:37:49;12.42;73.51
67249;SHT31;63247;54.300;18.592;2022-10-13T15:40:14;12.46;73.32
67249;SHT31;63247;54.300;18.592;2022-10-13T15:42:39;12.40;73.46
67249;SHT31;63247;54.300;18.592;2022-10-13T15:45:05;12.37;73.99
67249;SHT31;63247;54.300;18.592;2022-10-13T15:47:31;12.24;74.02
67249;SHT31;63247;54.300;18.592;2022-10-13T15:49:56;12.24;73.95
67249;SHT31;63247;54.300;18.592;2022-10-13T15:52:22;12.18;74.25
67249;SHT31;63247;54.300;18.592;2022-10-13T15:54:47;12.23;74.16
67249;SHT31;63247;54.300;18.592;2022-10-13T15:57:16;12.17;74.29
67249;SHT31;63247;54.300;18.592;2022-10-13T15:59:42;12.16;74.55
67249;SHT31;63247;54.300;18.592;2022-10-13T16:02:08;12.18;74.33
67249;SHT31;63247;54.300;18.592;2022-10-13T16:04:34;12.08;74.79
67249;SHT31;63247;54.300;18.592;2022-10-13T16:07:00;12.03;74.66
67249;SHT31;63247;54.300;18.592;2022-10-13T16:09:25;12.03;74.96
67249;SHT31;63247;54.300;18.592;2022-10-13T16:11:52;12.00;74.97
67249;SHT31;63247;54.300;18.592;2022-10-13T16:14:19;12.10;74.71
67249;SHT31;63247;54.300;18.592;2022-10-13T16:16:44;11.98;75.18
67249;SHT31;63247;54.300;18.592;2022-10-13T16:19:09;11.97;75.25
67249;SHT31;63247;54.300;18.592;2022-10-13T16:21:35;12.00;75.10
67249;SHT31;63247;54.300;18.592;2022-10-13T16:24:01;11.98;75.16
67249;SHT31;63247;54.300;18.592;2022-10-13T16:26:27;11.94;75.27
67249;SHT31;63247;54.300;18.592;2022-10-13T16:28:53;11.97;75.48
67249;SHT31;63247;54.300;18.592;2022-10-13T16:31:20;11.90;75.59
67249;SHT31;63247;54.300;18.592;2022-10-13T16:33:45;11.85;75.82
67249;SHT31;63247;54.300;18.592;2022-10-13T16:36:13;11.85;75.93
67249;SHT31;63247;54.300;18.592;2022-10-13T16:38:39;11.83;75.77
67249;SHT31;63247;54.300;18.592;2022-10-13T16:41:09;11.89;75.67
67249;SHT31;63247;54.300;18.592;2022-10-13T16:43:36;11.79;75.81
67249;SHT31;63247;54.300;18.592;2022-10-13T16:46:03;11.77;75.87
67249;SHT31;63247;54.300;18.592;2022-10-13T16:48:30;11.76;76.01
67249;SHT31;63247;54.300;18.592;2022-10-13T16:50:56;11.77;75.81
67249;SHT31;63247;54.300;18.592;2022-10-13T16:53:22;11.76;75.71
67249;SHT31;63247;54.300;18.592;2022-10-13T16:55:48;11.69;76.04
67249;SHT31;63247;54.300;18.592;2022-10-13T16:58:14;11.63;76.24
67249;SHT31;63247;54.300;18.592;2022-10-13T17:00:40;11.62;76.32
67249;SHT31;63247;54.300;18.592;2022-10-13T17:03:06;11.56;76.35
67249;SHT31;63247;54.300;18.592;2022-10-13T17:05:32;11.54;76.45